Latest Coastal Weather Observations for Rottnest Island

IDW60701

Issued at 10:33 pm WST Wednesday 22 November 2017 (issued every 10 minutes, with the page automatically refreshed every 10 minutes)

About coastal observations | Map of coastal stations | Coastal observations for WA | Marine services | Other Formats
Station Details ID: 009193 Name: ROTTNEST ISLAND Lat: -32.01 Lon: 115.50 Height: 43.1 m
Data from the previous 72 hours. | See also: Recent months at Rottnest Island
Date/Time
WST
Temp
°C
Wind Pressure Rain since
9am
mm
Weather Cloud Vis
km
Sea
Height
m
Swell
Dir  Spd
kts
Gust
kts
hPa Trend Height
m
Period
s
Dir
22/10:30pm 19.6 SSE 13 16 1016.4 - 0.0 - - - - - - -
22/10:00pm 19.7 SSE 15 17 1016.6 - 0.0 - - - - - - -
22/09:30pm 19.9 SSE 16 19 1016.5 - 0.0 - - - - - - -
22/09:00pm 19.7 S 17 21 1016.4 - 0.0 - - - - - - -
22/08:30pm 19.6 S 18 23 1016.2 - 0.0 - - - - - - -
22/08:00pm 19.4 S 18 22 1016.0 - 0.0 - - - - - - -
22/07:30pm 19.1 S 18 22 1015.9 - 0.0 - - - - - - -
22/07:00pm 19.4 S 19 24 1015.7 - 0.0 - - - - - - -
22/06:30pm 19.7 S 19 24 1015.7 - 0.0 - - - - - - -
22/06:00pm 20.4 SSW 18 24 1015.6 - 0.0 - - - - - - -
22/05:30pm 20.0 SSW 20 25 1015.4 - 0.0 - - - - - - -
22/05:00pm 21.1 SSW 19 23 1015.4 - 0.0 - - - - - - -
22/04:30pm 21.3 SSW 17 20 1015.7 - 0.0 - - - - - - -
22/04:00pm 22.3 SSW 15 19 1016.2 - 0.0 - - - - - - -
22/03:30pm 22.0 SSW 15 19 1016.6 - 0.0 - - - - - - -
22/03:00pm 22.2 SSW 16 19 1016.4 - 0.0 - - - - - - -
22/02:30pm 22.7 SSW 14 17 1016.8 - 0.0 - - - - - - -
22/02:00pm 22.3 SSW 13 15 1017.0 - 0.0 - - - - - - -
22/01:30pm 22.3 SSW 11 13 1017.5 - 0.0 - - - - - - -
22/01:00pm 22.6 SSE 9 11 1017.8 - 0.0 - - - - - - -
22/12:30pm 23.4 SSE 10 13 1018.1 - 0.0 - - - - - - -
22/12:00pm 23.4 ESE 8 12 1018.6 - 0.0 - - - - - - -
22/11:30am 21.8 ESE 9 14 1019.1 - 0.0 - - - - - - -
22/11:00am 22.0 SE 11 17 1019.5 - 0.0 - - - - - - -
22/10:30am 20.9 ESE 11 15 1019.9 - 0.0 - - - - - - -
22/10:00am 20.4 E 12 19 1020.1 - 0.0 - - - - - - -
22/09:30am 20.3 E 12 17 1020.2 - 0.0 - - - - - - -
22/09:00am 18.9 ENE 13 19 1020.3 - 0.0 - - - - - - -
22/08:30am 18.3 E 13 18 1020.4 - 0.0 - - - - - - -
22/08:00am 17.8 E 15 21 1020.4 - 0.0 - - - - - - -
22/07:30am 16.6 E 17 23 1020.2 - 0.0 - - - - - - -
22/07:00am 16.5 E 15 20 1020.2 - 0.0 - - - - - - -
22/06:30am 15.6 E 18 24 1019.9 - 0.0 - - - - - - -
22/06:00am 15.3 E 15 24 1020.0 - 0.0 - - - - - - -
22/05:30am 14.9 E 15 22 1019.7 - 0.0 - - - - - - -
22/05:00am 14.8 E 15 21 1019.5 - 0.0 - - - - - - -
22/04:30am 15.3 E 17 24 1019.3 - 0.0 - - - - - - -
22/04:00am 15.6 E 16 23 1019.3 - 0.0 - - - - - - -
22/03:30am 15.9 E 13 19 1019.3 - 0.0 - - - - - - -
22/03:00am 16.3 E 15 22 1019.3 - 0.0 - - - - - - -
22/02:30am 16.9 E 18 24 1019.2 - 0.0 - - - - - - -
22/02:03am 17.3 E 15 25 1019.1 - 0.0 - - - - - - -
22/02:00am 17.3 E 15 22 1019.2 - 0.0 - - - - - - -
22/01:30am 17.9 E 18 29 1019.0 - 0.0 - - - - - - -
22/01:27am 18.0 E 18 29 1018.9 - 0.0 - - - - - - -
22/01:00am 18.4 ESE 15 22 1018.9 - 0.0 - - - - - - -
22/12:30am 18.7 ESE 12 18 1018.8 - 0.0 - - - - - - -
22/12:00am 19.1 ESE 11 18 1018.7 - 0.0 - - - - - - -
 
Date/Time
WST
Temp
°C
Wind Pressure Rain since
9am
mm
Weather Cloud Vis
km
Sea
Height
m
Swell
Dir  Spd
kts
Gust
kts
hPa Trend Height
m
Period
s
Dir
21/11:30pm 19.6 SE 15 19 1018.6 - 0.0 - - - - - - -
21/11:00pm 19.5 SSE 16 21 1018.5 - 0.0 - - - - - - -
21/10:30pm 19.6 S 18 22 1018.2 - 0.0 - - - - - - -
21/10:00pm 19.6 S 20 25 1018.0 - 0.0 - - - - - - -
21/09:30pm 19.5 S 22 26 1017.9 - 0.0 - - - - - - -
21/09:00pm 19.4 S 23 28 1017.9 - 0.0 - - - - - - -
21/08:30pm 19.4 S 22 28 1017.8 - 0.0 - - - - - - -
21/08:00pm 19.2 S 23 29 1017.6 - 0.0 - - - - - - -
21/07:30pm 18.9 S 24 29 1016.9 - 0.0 - - - - - - -
21/07:00pm 18.8 S 23 29 1016.8 - 0.0 - - - - - - -
21/06:30pm 19.0 S 25 30 1016.7 - 0.0 - - - - - - -
21/06:00pm 19.1 SSW 25 30 1016.6 - 0.0 - - - - - - -
21/05:30pm 19.4 SSW 24 30 1016.5 - 0.0 - - - - - - -
21/05:00pm 19.8 SSW 24 29 1016.5 - 0.0 - - - - - - -
21/04:30pm 19.7 SSW 25 30 1016.4 - 0.0 - - - - - - -
21/04:00pm 20.2 SSW 24 29 1016.8 - 0.0 - - - - - - -
21/03:30pm 20.5 SSW 24 29 1017.0 - 0.0 - - - - - - -
21/03:00pm 20.9 SSW 24 29 1016.9 - 0.0 - - - - - - -
21/02:30pm 21.0 SSW 22 27 1017.2 - 0.0 - - - - - - -
21/02:00pm 20.3 SSW 22 27 1017.0 - 0.0 - - - - - - -
21/01:30pm 21.1 S 22 27 1017.0 - 0.0 - - - - - - -
21/01:00pm 19.9 SSW 21 26 1017.7 - 0.0 - - - - - - -
21/12:30pm 20.0 SSW 21 25 1018.1 - 0.0 - - - - - - -
21/12:00pm 20.4 S 20 25 1018.2 - 0.0 - - - - - - -
21/11:30am 19.9 S 19 24 1018.5 - 0.0 - - - - - - -
21/11:00am 21.1 S 18 23 1019.0 - 0.0 - - - - - - -
21/10:30am 19.6 S 19 23 1019.0 - 0.0 - - - - - - -
21/10:00am 19.4 S 20 23 1018.7 - 0.0 - - - - - - -
21/09:30am 18.5 SSE 21 25 1019.0 - 0.0 - - - - - - -
21/09:00am 18.7 SSE 20 25 1019.2 - 0.0 - - - - - - -
21/08:30am 18.1 SSE 21 27 1019.0 - 0.0 - - - - - - -
21/08:00am 18.0 SSE 20 25 1018.9 - 0.0 - - - - - - -
21/07:30am 17.5 SSE 21 26 1018.9 - 0.0 - - - - - - -
21/07:00am 16.7 SSE 21 27 1018.3 - 0.0 - - - - - - -
21/06:30am 16.7 SSE 22 27 1018.1 - 0.0 - - - - - - -
21/06:00am 16.6 SSE 21 27 1017.6 - 0.0 - - - - - - -
21/05:30am 16.9 SSE 21 25 1017.4 - 0.0 - - - - - - -
21/05:00am 16.9 S 19 24 1016.9 - 0.0 - - - - - - -
21/04:30am 16.9 S 21 25 1016.7 - 0.0 - - - - - - -
21/04:00am 17.0 S 23 28 1016.1 - 0.0 - - - - - - -
21/03:30am 17.3 S 21 26 1015.9 - 0.0 - - - - - - -
21/03:00am 17.5 S 22 27 1015.8 - 0.0 - - - - - - -
21/02:30am 17.7 S 22 27 1015.5 - 0.0 - - - - - - -
21/02:00am 17.6 S 22 27 1015.5 - 0.0 - - - - - - -
21/01:30am 17.9 S 20 25 1015.6 - 0.0 - - - - - - -
21/01:00am 17.8 S 20 24 1015.5 - 0.0 - - - - - - -
21/12:30am 18.1 S 20 24 1015.7 - 0.0 - - - - - - -
21/12:00am 18.2 S 21 25 1015.6 - 0.0 - - - - - - -
 
Date/Time
WST
Temp
°C
Wind Pressure Rain since
9am
mm
Weather Cloud Vis
km
Sea
Height
m
Swell
Dir  Spd
kts
Gust
kts
hPa Trend Height
m
Period
s
Dir
20/11:30pm 18.2 S 17 21 1015.7 - 0.0 - - - - - - -
20/11:00pm 18.1 S 17 20 1015.8 - 0.0 - - - - - - -
20/10:30pm 18.1 S 17 22 1016.0 - 0.0 - - - - - - -
20/10:00pm 18.3 S 15 17 1016.2 - 0.0 - - - - - - -
20/09:30pm 18.5 SSW 13 16 1016.2 - 0.0 - - - - - - -
20/09:00pm 18.3 SSW 12 15 1016.1 - 0.0 - - - - - - -
20/08:30pm 18.2 SSW 13 15 1015.9 - 0.0 - - - - - - -
20/08:00pm 18.5 SSW 12 14 1015.7 - 0.0 - - - - - - -
20/07:30pm 18.4 SW 12 15 1015.5 - 0.0 - - - - - - -
20/07:00pm 18.4 SW 11 15 1015.4 - 0.0 - - - - - - -
20/06:30pm 19.2 SSW 13 15 1015.0 - 0.0 - - - - - - -
20/06:00pm 19.6 SSW 12 15 1014.7 - 0.0 - - - - - - -
20/05:30pm 19.8 SSW 12 15 1014.4 - 0.0 - - - - - - -
20/05:00pm 20.5 SW 11 14 1014.5 - 0.0 - - - - - - -
20/04:30pm 20.2 SW 13 17 1014.4 - 0.0 - - - - - - -
20/04:00pm 20.9 SW 14 17 1014.3 - 0.0 - - - - - - -
20/03:30pm 21.7 SW 14 17 1014.3 - 0.0 - - - - - - -
20/03:00pm 20.9 SSW 13 17 1014.3 - 0.0 - - - - - - -
20/02:30pm 21.5 SW 13 17 1014.3 - 0.0 - - - - - - -
20/02:00pm 22.4 SW 12 17 1014.4 - 0.0 - - - - - - -
20/01:30pm 21.7 SW 11 15 1014.2 - 0.0 - - - - - - -
20/01:00pm 20.9 SW 11 16 1014.2 - 0.0 - - - - - - -
20/12:30pm 20.9 SW 10 14 1014.3 - 0.0 - - - - - - -
20/12:00pm 21.2 WSW 10 15 1014.6 - 0.0 - - - - - - -
20/11:30am 20.6 SW 9 12 1014.6 - 0.0 - - - - - - -
20/11:00am 21.9 SSW 8 12 1014.8 - 0.0 - - - - - - -
20/10:30am 21.8 SSW 9 14 1014.9 - 0.0 - - - - - - -
20/10:00am 20.3 SSW 8 12 1015.0 - 0.0 - - - - - - -
20/09:30am 20.2 SW 7 10 1015.0 - 0.0 - - - - - - -
20/09:00am 19.7 SSW 8 11 1015.0 - 0.0 - - - - - - -
20/08:30am 20.3 SW 8 10 1014.9 - 0.0 - - - - - - -
20/08:00am 19.7 SW 8 12 1014.8 - 0.0 - - - - - - -
20/07:30am 19.2 SW 11 14 1014.6 - 0.0 - - - - - - -
20/07:00am 17.9 SW 10 14 1014.3 - 0.0 - - - - - - -
20/06:30am 17.9 SW 10 13 1014.0 - 0.0 - - - - - - -
20/06:00am 18.0 SW 9 12 1013.9 - 0.0 - - - - - - -
20/05:30am 17.3 SW 11 14 1013.8 - 0.0 - - - - - - -
20/05:00am 17.1 SSW 10 14 1013.3 - 0.0 - - - - - - -
20/04:30am 16.6 SSW 8 12 1013.0 - 0.0 - - - - - - -
20/04:00am 16.7 SW 9 11 1012.6 - 0.0 - - - - - - -
20/03:30am 16.1 SSW 8 11 1012.8 - 0.0 - - - - - - -
20/03:00am 15.9 SW 10 13 1012.8 - 0.0 - - - - - - -
20/02:30am 16.3 SW 10 14 1012.6 - 0.0 - - - - - - -
20/02:00am 17.0 SSW 11 13 1012.7 - 0.0 - - - - - - -
20/01:30am 16.9 SSW 10 13 1012.8 - 0.0 - - - - - - -
20/01:00am 16.2 SW 10 13 1013.1 - 0.0 - - - - - - -
20/12:30am 16.1 SW 10 14 1013.4 - 0.0 - - - - - - -
20/12:00am 16.0 SW 9 12 1013.4 - 0.0 - - - - - - -
 
Date/Time
WST
Temp
°C
Wind Pressure Rain since
9am
mm
Weather Cloud Vis
km
Sea
Height
m
Swell
Dir  Spd
kts
Gust
kts
hPa Trend Height
m
Period
s
Dir
19/11:30pm 16.7 SSW 10 12 1013.5 - 0.0 - - - - - - -
19/11:00pm 16.8 SSW 10 13 1013.7 - 0.0 - - - - - - -

Other Formats:

Comma delimited format used in spreadsheet applications
http://www.bom.gov.au/fwo/IDW60701/IDW60701.94602.axf

JavaScript Object Notation format (JSON) in row-major order
http://www.bom.gov.au/fwo/IDW60701/IDW60701.94602.json